Time;durP1;ratioP1;P1;durP2;ratioP2;P2;SDS_P1;SDS_P2;PMS_P1;PMS_P2;Temp;Humidity;BMP_temperature;BMP_pressure;BME280_temperature;BME280_humidity;BME280_pressure;Samples;Min_cycle;Max_cycle;Signal;HPM_P1;HPM_P2
2022/03/27 00:02:27;;;;;;;22.10;11.85;;;6.40;99.90;;;;;;1919456;74;21064;-78
2022/03/27 00:04:54;;;;;;;38.13;12.85;;;6.30;99.90;;;;;;1919465;75;21129;-78
2022/03/27 00:07:24;;;;;;;29.72;11.33;;;6.30;99.90;;;;;;1919214;75;21033;-79
2022/03/27 00:09:52;;;;;;;26.87;11.55;;;6.20;99.90;;;;;;1919139;73;21086;-79
2022/03/27 00:12:20;;;;;;;26.48;12.30;;;6.10;99.90;;;;;;1919139;75;21044;-79
2022/03/27 00:14:47;;;;;;;32.67;12.23;;;6.10;99.90;;;;;;1894148;75;21064;-79
2022/03/27 00:17:15;;;;;;;23.10;12.03;;;6.10;99.90;;;;;;1919076;75;21041;-79
2022/03/27 00:19:42;;;;;;;28.98;12.00;;;6.00;99.90;;;;;;1919122;75;21092;-78
2022/03/27 00:22:09;;;;;;;32.95;12.53;;;5.90;99.90;;;;;;1919157;75;21029;-78
2022/03/27 00:24:37;;;;;;;25.82;11.95;;;5.90;99.90;;;;;;1919655;75;21076;-79
2022/03/27 00:27:05;;;;;;;27.98;11.25;;;5.90;99.90;;;;;;1919117;75;21029;-79
2022/03/27 00:29:32;;;;;;;25.33;12.23;;;5.80;99.90;;;;;;1919050;74;21107;-79
2022/03/27 00:32:00;;;;;;;33.65;12.45;;;5.70;99.90;;;;;;1919172;75;21049;-78
2022/03/27 00:34:27;;;;;;;25.00;11.68;;;5.70;99.90;;;;;;1918956;73;21069;-77
2022/03/27 00:36:55;;;;;;;24.02;11.68;;;5.70;99.90;;;;;;1919009;73;21033;-78
2022/03/27 00:39:22;;;;;;;25.20;12.00;;;5.70;99.90;;;;;;1918899;75;21522;-78
2022/03/27 00:41:51;;;;;;;22.50;11.50;;;5.70;99.90;;;;;;1918913;73;21099;-79
2022/03/27 00:44:19;;;;;;;26.37;11.30;;;5.70;99.90;;;;;;1918944;74;21433;-79
2022/03/27 00:46:46;;;;;;;20.52;11.60;;;5.70;99.90;;;;;;1918863;75;21084;-79
2022/03/27 00:49:13;;;;;;;21.20;11.45;;;5.70;99.90;;;;;;1894791;74;21053;-78
2022/03/27 00:51:40;;;;;;;18.02;11.55;;;5.70;99.90;;;;;;1918961;75;21114;-79
2022/03/27 00:54:08;;;;;;;24.50;11.88;;;5.60;99.90;;;;;;1919078;73;21010;-79
2022/03/27 00:56:35;;;;;;;18.82;11.08;;;5.60;99.90;;;;;;1918869;75;21036;-78
2022/03/27 00:59:04;;;;;;;19.50;10.58;;;5.60;99.90;;;;;;1919082;75;21481;-79
2022/03/27 01:01:39;;;;;;;24.35;10.72;;;5.60;99.90;;;;;;1918950;75;21416;-78
2022/03/27 01:04:07;;;;;;;24.92;11.65;;;5.50;99.90;;;;;;1918891;75;21045;-79
2022/03/27 01:06:41;;;;;;;20.55;11.22;;;5.40;99.90;;;;;;1918880;75;21499;-79
2022/03/27 01:11:56;;;;;;;20.88;10.50;;;5.30;99.90;;;;;;1918822;75;21549;-78
2022/03/27 01:14:29;;;;;;;23.18;11.03;;;5.30;99.90;;;;;;1918878;75;21102;-78
2022/03/27 01:17:08;;;;;;;33.00;12.15;;;5.20;99.90;;;;;;1918320;75;21578;-79
2022/03/27 01:19:39;;;;;;;19.52;11.10;;;5.20;99.90;;;;;;1918908;74;21053;-78
2022/03/27 01:22:06;;;;;;;24.25;11.68;;;5.10;99.90;;;;;;1917883;73;21142;-79
2022/03/27 01:24:33;;;;;;;26.60;11.80;;;5.00;99.90;;;;;;1919014;75;21036;-78
2022/03/27 01:27:01;;;;;;;33.70;12.93;;;5.00;99.90;;;;;;1918965;75;21106;-78
2022/03/27 01:29:28;;;;;;;30.77;12.13;;;4.90;99.90;;;;;;1918972;75;21033;-79
2022/03/27 01:31:57;;;;;;;23.40;11.50;;;4.90;99.90;;;;;;1918888;75;21123;-78
2022/03/27 01:34:24;;;;;;;25.68;11.08;;;4.80;99.90;;;;;;1921513;74;21098;-77
2022/03/27 01:36:54;;;;;;;23.40;12.00;;;4.80;99.90;;;;;;1918599;73;21135;-78
2022/03/27 01:39:21;;;;;;;27.87;11.73;;;4.80;99.90;;;;;;1918960;75;21072;-79
2022/03/27 01:41:48;;;;;;;24.45;12.00;;;4.80;99.90;;;;;;1918744;75;21227;-78
2022/03/27 01:44:20;;;;;;;24.02;11.78;;;4.80;99.90;;;;;;1918695;74;21076;-78
2022/03/27 01:46:48;;;;;;;20.57;11.90;;;4.70;99.90;;;;;;1918672;75;21135;-80
2022/03/27 01:49:16;;;;;;;22.02;11.30;;;4.60;99.90;;;;;;1918788;73;21118;-77
2022/03/27 01:51:44;;;;;;;42.95;11.18;;;4.60;99.90;;;;;;1918711;75;21076;-79
2022/03/27 01:54:11;;;;;;;26.70;11.28;;;4.60;99.90;;;;;;1918713;75;21114;-78
2022/03/27 01:56:39;;;;;;;20.02;11.25;;;4.60;99.90;;;;;;1918829;73;21064;-79
2022/03/27 01:59:07;;;;;;;23.75;11.93;;;4.60;99.90;;;;;;1918844;75;21141;-78
2022/03/27 02:01:36;;;;;;;19.80;11.70;;;4.60;99.90;;;;;;1918825;75;21013;-79
2022/03/27 02:04:03;;;;;;;20.08;11.45;;;4.60;99.90;;;;;;1918919;75;21196;-79
2022/03/27 02:06:32;;;;;;;27.02;11.33;;;4.50;99.90;;;;;;1918881;75;21061;-79
2022/03/27 02:09:00;;;;;;;28.98;12.07;;;4.40;99.90;;;;;;1918898;73;21031;-78
2022/03/27 02:11:27;;;;;;;29.10;11.65;;;4.40;99.90;;;;;;1918936;74;21150;-79
2022/03/27 02:13:55;;;;;;;18.32;10.63;;;4.40;99.90;;;;;;1893487;75;21088;-79
2022/03/27 02:16:22;;;;;;;19.52;11.68;;;4.30;99.90;;;;;;1918937;73;21021;-78
2022/03/27 02:18:51;;;;;;;22.62;12.58;;;4.30;99.90;;;;;;1918866;74;21017;-78
2022/03/27 02:21:19;;;;;;;26.70;11.40;;;4.30;99.90;;;;;;1918779;75;21130;-79
2022/03/27 02:23:46;;;;;;;27.25;12.50;;;4.30;99.90;;;;;;1918771;75;21041;-78
2022/03/27 02:26:13;;;;;;;28.12;11.78;;;4.30;99.90;;;;;;1918688;75;21022;-79
2022/03/27 02:28:41;;;;;;;20.12;12.28;;;4.30;99.90;;;;;;1918715;74;21033;-79
2022/03/27 02:31:09;;;;;;;25.30;12.43;;;4.20;99.90;;;;;;1918774;73;21118;-78
2022/03/27 02:33:37;;;;;;;25.50;11.55;;;4.10;99.90;;;;;;1918961;75;21037;-79
2022/03/27 02:36:06;;;;;;;20.15;11.78;;;4.10;99.90;;;;;;1893799;75;21044;-80
2022/03/27 02:38:34;;;;;;;19.50;11.93;;;4.10;99.90;;;;;;1918665;75;21114;-79
2022/03/27 02:41:03;;;;;;;24.07;12.47;;;4.10;99.90;;;;;;1918653;74;21146;-80
2022/03/27 02:43:32;;;;;;;19.92;11.78;;;4.10;99.90;;;;;;1918663;75;21163;-80
2022/03/27 02:45:59;;;;;;;30.75;11.15;;;3.90;99.90;;;;;;1918656;73;20998;-80
2022/03/27 02:48:27;;;;;;;18.40;10.75;;;4.00;99.90;;;;;;1918703;73;21110;-79
2022/03/27 02:50:54;;;;;;;30.05;12.30;;;4.00;99.90;;;;;;1918880;73;21414;-79
2022/03/27 02:53:21;;;;;;;21.68;11.68;;;3.90;99.90;;;;;;1918630;74;21107;-79
2022/03/27 02:55:49;;;;;;;22.50;11.20;;;3.90;99.90;;;;;;1918725;75;21487;-78
2022/03/27 02:58:16;;;;;;;25.97;11.15;;;3.90;99.90;;;;;;1918593;75;21001;-79
2022/03/27 03:00:44;;;;;;;26.30;11.60;;;3.90;99.90;;;;;;1918706;74;21041;-80
2022/03/27 03:03:12;;;;;;;23.27;11.55;;;3.90;99.90;;;;;;1918673;75;21483;-79
2022/03/27 03:05:39;;;;;;;22.45;11.88;;;3.80;99.90;;;;;;1918665;75;21061;-79
2022/03/27 03:08:11;;;;;;;25.68;12.23;;;3.70;99.90;;;;;;1918687;74;21180;-79
2022/03/27 03:10:38;;;;;;;35.63;13.13;;;3.70;99.90;;;;;;1893877;75;21135;-79
2022/03/27 03:13:08;;;;;;;18.95;11.50;;;3.80;99.90;;;;;;1899980;75;21068;-80
2022/03/27 03:15:41;;;;;;;21.07;12.37;;;3.80;99.90;;;;;;1856999;75;21041;-79
2022/03/27 03:18:09;;;;;;;24.12;12.13;;;3.90;99.90;;;;;;1918774;75;21091;-81
2022/03/27 03:20:36;;;;;;;24.95;12.50;;;3.80;99.90;;;;;;1918642;75;21422;-79
2022/03/27 03:23:03;;;;;;;21.45;11.33;;;3.80;99.90;;;;;;1918684;75;21080;-79
2022/03/27 03:25:31;;;;;;;32.13;11.88;;;3.70;99.90;;;;;;1918661;75;21114;-79
2022/03/27 03:27:59;;;;;;;23.30;10.80;;;3.70;99.90;;;;;;1918732;75;21496;-79
2022/03/27 03:30:26;;;;;;;21.33;10.98;;;3.60;99.90;;;;;;1918640;73;21426;-79
2022/03/27 03:32:53;;;;;;;22.27;11.38;;;3.60;99.90;;;;;;1918619;75;21033;-80
2022/03/27 03:38:43;;;;;;;25.00;11.65;;;3.50;99.90;;;;;;1920942;74;21073;-81
2022/03/27 03:41:10;;;;;;;22.95;11.83;;;3.50;99.90;;;;;;1918720;73;21072;-81
2022/03/27 03:43:39;;;;;;;21.70;12.07;;;3.40;99.90;;;;;;1918714;75;21060;-80
2022/03/27 03:46:06;;;;;;;18.35;11.30;;;3.40;99.90;;;;;;1918628;75;20998;-80
2022/03/27 03:48:33;;;;;;;24.37;11.63;;;3.40;99.90;;;;;;1935226;74;21020;-80
2022/03/27 03:51:01;;;;;;;29.07;11.48;;;3.40;99.90;;;;;;1918665;73;21044;-80
2022/03/27 03:53:28;;;;;;;34.50;12.80;;;3.30;99.90;;;;;;1918757;73;21065;-79
2022/03/27 03:55:58;;;;;;;24.02;12.15;;;3.30;99.90;;;;;;1918569;75;21005;-79
2022/03/27 03:58:25;;;;;;;19.15;11.63;;;3.20;99.90;;;;;;1918853;75;21130;-80
2022/03/27 04:00:52;;;;;;;27.75;12.47;;;3.20;99.90;;;;;;1918587;75;21095;-80
2022/03/27 04:03:20;;;;;;;34.63;12.00;;;3.20;99.90;;;;;;1922734;74;20997;-81
2022/03/27 04:05:47;;;;;;;23.10;12.05;;;3.10;99.90;;;;;;1918553;75;21020;-80
2022/03/27 04:08:16;;;;;;;29.48;11.83;;;3.10;99.90;;;;;;1918489;75;21115;-80
2022/03/27 04:10:43;;;;;;;20.75;11.55;;;3.10;99.90;;;;;;1918418;75;21064;-79
2022/03/27 04:13:11;;;;;;;26.75;12.82;;;3.10;99.90;;;;;;1918739;75;21098;-80
2022/03/27 04:15:38;;;;;;;20.85;11.68;;;3.10;99.90;;;;;;1918564;75;21052;-81
2022/03/27 04:18:06;;;;;;;19.42;11.20;;;3.10;99.90;;;;;;1918407;74;21065;-82
2022/03/27 04:20:36;;;;;;;30.02;12.30;;;3.00;99.90;;;;;;1918548;75;21152;-82
2022/03/27 04:23:05;;;;;;;27.45;12.90;;;3.00;99.90;;;;;;1918440;75;21061;-80
2022/03/27 04:25:32;;;;;;;28.45;12.35;;;3.00;99.90;;;;;;1895092;75;21021;-80
2022/03/27 04:28:05;;;;;;;21.10;12.10;;;2.90;99.90;;;;;;1918448;75;21127;-82
2022/03/27 04:30:32;;;;;;;22.95;11.70;;;2.90;99.90;;;;;;1918701;75;21405;-81
2022/03/27 04:32:59;;;;;;;21.17;11.90;;;3.00;99.90;;;;;;1918700;75;21029;-83
2022/03/27 04:35:27;;;;;;;40.73;13.20;;;3.00;99.90;;;;;;1918738;75;21433;-80
2022/03/27 04:37:54;;;;;;;26.68;12.00;;;3.00;99.90;;;;;;1918491;75;21029;-79
2022/03/27 04:40:21;;;;;;;22.52;12.75;;;3.00;99.90;;;;;;1918423;75;21028;-81
2022/03/27 04:42:49;;;;;;;28.65;13.13;;;2.90;99.90;;;;;;1918553;75;21053;-79
2022/03/27 04:45:17;;;;;;;22.40;13.05;;;2.90;99.90;;;;;;1918531;75;21172;-79
2022/03/27 04:47:44;;;;;;;25.75;12.18;;;2.80;99.90;;;;;;1918630;75;21045;-82
2022/03/27 04:50:11;;;;;;;24.37;12.10;;;2.80;99.90;;;;;;1918464;74;21511;-81
2022/03/27 04:52:39;;;;;;;29.02;13.78;;;2.70;99.90;;;;;;1918352;75;21150;-81
2022/03/27 04:55:07;;;;;;;23.83;11.38;;;2.70;99.90;;;;;;1918564;75;21413;-79
2022/03/27 04:57:38;;;;;;;24.95;12.53;;;2.70;99.90;;;;;;1918658;75;21009;-81
2022/03/27 05:00:10;;;;;;;24.00;12.57;;;2.60;99.90;;;;;;1918713;75;21078;-81
2022/03/27 05:02:36;;;;;;;22.17;11.50;;;2.60;99.90;;;;;;1918418;75;21206;-81
2022/03/27 05:05:05;;;;;;;28.52;12.90;;;2.50;99.90;;;;;;1918527;75;21060;-82
2022/03/27 05:07:32;;;;;;;25.57;13.40;;;2.50;99.90;;;;;;1918547;74;21122;-80
2022/03/27 05:09:59;;;;;;;26.68;11.88;;;2.50;99.90;;;;;;1918545;75;21154;-81
2022/03/27 05:12:27;;;;;;;38.85;13.40;;;2.40;99.90;;;;;;1918579;74;21103;-81
2022/03/27 05:14:54;;;;;;;23.90;13.15;;;2.50;99.90;;;;;;1919006;74;21031;-81
2022/03/27 05:17:21;;;;;;;22.52;12.75;;;2.50;99.90;;;;;;1919226;75;21091;-81
2022/03/27 05:19:49;;;;;;;25.75;12.80;;;2.40;99.90;;;;;;1919276;75;21064;-82
2022/03/27 05:22:16;;;;;;;21.17;12.40;;;2.40;99.90;;;;;;1919578;75;21095;-81
2022/03/27 05:24:45;;;;;;;31.87;13.50;;;2.40;99.90;;;;;;1919272;73;21386;-80
2022/03/27 05:27:13;;;;;;;30.52;12.50;;;2.50;99.90;;;;;;1919393;75;21517;-81
2022/03/27 05:29:40;;;;;;;29.27;13.75;;;2.50;99.90;;;;;;1919631;75;21094;-81
2022/03/27 05:32:08;;;;;;;24.05;12.58;;;2.50;99.90;;;;;;1916414;74;21146;-81
2022/03/27 05:34:36;;;;;;;22.15;12.58;;;2.50;99.90;;;;;;1918649;74;21040;-82
2022/03/27 05:37:03;;;;;;;24.32;13.65;;;2.50;99.90;;;;;;1918576;75;21127;-83
2022/03/27 05:39:30;;;;;;;26.93;13.80;;;2.50;99.90;;;;;;1918655;75;21107;-81
2022/03/27 05:41:58;;;;;;;23.95;12.10;;;2.50;99.90;;;;;;1918605;75;21518;-81
2022/03/27 05:44:25;;;;;;;27.73;12.30;;;2.50;99.90;;;;;;1918561;75;21037;-81
2022/03/27 05:46:52;;;;;;;22.73;12.82;;;2.60;99.90;;;;;;1918476;74;21102;-82
2022/03/27 05:49:20;;;;;;;27.82;12.13;;;2.60;99.90;;;;;;1918520;73;21112;-80
2022/03/27 05:51:47;;;;;;;23.83;13.22;;;2.60;99.90;;;;;;1918851;75;21040;-80
2022/03/27 05:54:15;;;;;;;22.42;13.05;;;2.60;99.90;;;;;;1918423;75;21053;-81
2022/03/27 05:56:42;;;;;;;39.27;13.05;;;2.50;99.90;;;;;;1918519;75;21045;-81
2022/03/27 05:59:11;;;;;;;21.77;12.70;;;2.60;99.90;;;;;;1918462;75;21152;-82
2022/03/27 06:01:40;;;;;;;23.83;12.50;;;2.70;99.90;;;;;;1918529;75;21131;-81
2022/03/27 06:04:07;;;;;;;25.32;12.47;;;2.70;99.90;;;;;;1918412;75;21110;-83
2022/03/27 06:06:35;;;;;;;27.90;13.30;;;2.80;99.90;;;;;;1918584;74;21425;-83
2022/03/27 06:09:02;;;;;;;28.87;14.55;;;2.70;99.90;;;;;;1918466;75;21064;-82
2022/03/27 06:11:29;;;;;;;24.18;13.05;;;2.80;99.90;;;;;;1918713;73;21057;-82
2022/03/27 06:13:57;;;;;;;20.75;13.20;;;2.80;99.90;;;;;;1918737;73;21041;-81
2022/03/27 06:16:24;;;;;;;23.15;13.18;;;2.80;99.90;;;;;;1893432;75;21006;-79
2022/03/27 06:18:51;;;;;;;24.70;13.20;;;2.90;99.90;;;;;;1922317;73;21468;-78
2022/03/27 06:21:18;;;;;;;28.27;13.08;;;3.00;99.90;;;;;;1918751;75;21025;-77
2022/03/27 06:23:46;;;;;;;31.15;13.38;;;3.10;99.90;;;;;;1919202;74;21025;-79
2022/03/27 06:26:13;;;;;;;23.25;12.82;;;3.10;99.90;;;;;;1919162;73;21033;-78
2022/03/27 06:28:42;;;;;;;32.45;13.45;;;3.20;99.90;;;;;;1918715;75;21095;-78
2022/03/27 06:31:09;;;;;;;20.20;13.35;;;3.30;99.90;;;;;;1918785;74;21053;-79
2022/03/27 06:33:37;;;;;;;30.57;13.15;;;3.40;99.90;;;;;;1918748;74;21131;-78
2022/03/27 06:36:04;;;;;;;29.05;13.78;;;3.40;99.90;;;;;;1918782;75;21029;-76
2022/03/27 06:38:32;;;;;;;23.07;13.20;;;3.50;99.90;;;;;;1918606;75;21005;-76
2022/03/27 06:40:59;;;;;;;25.27;13.45;;;3.60;99.90;;;;;;1918659;75;21405;-79
2022/03/27 06:43:26;;;;;;;28.67;13.60;;;3.60;99.90;;;;;;1918933;74;21025;-81
2022/03/27 06:45:54;;;;;;;28.73;13.30;;;3.80;99.90;;;;;;1919880;75;21351;-79
2022/03/27 06:48:21;;;;;;;21.95;13.30;;;3.90;99.90;;;;;;1920100;75;21029;-80
2022/03/27 06:50:49;;;;;;;24.10;13.08;;;4.00;99.90;;;;;;1919561;75;21033;-78
2022/03/27 06:53:20;;;;;;;24.43;13.50;;;4.20;99.90;;;;;;1919228;74;21124;-77
2022/03/27 06:55:48;;;;;;;22.48;13.72;;;4.30;99.90;;;;;;1918572;74;21086;-76
2022/03/27 06:58:15;;;;;;;21.80;12.88;;;4.40;99.90;;;;;;1918715;75;21426;-77
2022/03/27 07:03:28;;;;;;;23.40;13.90;;;4.60;99.90;;;;;;1917197;75;21110;-76
2022/03/27 07:05:56;;;;;;;26.25;13.62;;;4.70;99.90;;;;;;1918579;75;21033;-76
2022/03/27 07:08:23;;;;;;;25.43;13.05;;;4.80;99.90;;;;;;1918823;74;21115;-78
2022/03/27 07:10:51;;;;;;;23.52;13.95;;;4.90;99.90;;;;;;1918750;74;21585;-78
2022/03/27 07:13:19;;;;;;;23.38;14.00;;;5.00;99.90;;;;;;1918779;74;21057;-78
2022/03/27 07:15:48;;;;;;;26.15;13.62;;;5.10;99.90;;;;;;1918598;75;21025;-78
2022/03/27 07:18:20;;;;;;;24.32;13.78;;;5.10;99.90;;;;;;1918525;75;21060;-77
2022/03/27 07:20:48;;;;;;;31.48;15.28;;;5.20;99.90;;;;;;1917155;75;21081;-78
2022/03/27 07:23:18;;;;;;;28.60;16.17;;;5.30;99.90;;;;;;1918950;75;21135;-78
2022/03/27 07:25:47;;;;;;;27.90;14.83;;;5.40;99.90;;;;;;1918911;75;21044;-78
2022/03/27 07:28:15;;;;;;;29.60;14.80;;;5.60;99.90;;;;;;1918909;75;21107;-77
2022/03/27 07:30:43;;;;;;;33.63;15.23;;;5.70;99.90;;;;;;1918636;73;21469;-78
2022/03/27 07:33:11;;;;;;;22.85;14.10;;;5.90;99.90;;;;;;1920379;73;21281;-78
2022/03/27 07:35:38;;;;;;;27.45;13.98;;;6.00;99.90;;;;;;1918862;75;21056;-79
2022/03/27 07:38:17;;;;;;;30.60;14.23;;;6.20;99.90;;;;;;1919692;73;21077;-78
2022/03/27 07:41:21;;;;;;;;;;;;;;;;;;;;;
2022/03/27 07:43:40;;;;;;;29.92;16.05;;;6.50;99.90;;;;;;1896517;75;21143;-77
2022/03/27 07:46:07;;;;;;;29.40;14.55;;;6.60;99.90;;;;;;1905306;75;21173;-77
2022/03/27 07:48:34;;;;;;;30.48;15.20;;;6.80;99.90;;;;;;1905707;75;21528;-77
2022/03/27 07:51:02;;;;;;;25.20;14.87;;;6.80;99.90;;;;;;1905578;75;21010;-78
2022/03/27 07:53:29;;;;;;;30.05;14.83;;;6.90;99.90;;;;;;1905217;75;21543;-77
2022/03/27 07:55:56;;;;;;;26.23;14.18;;;7.20;99.90;;;;;;1905622;75;21161;-79
2022/03/27 07:58:23;;;;;;;26.48;15.03;;;7.60;99.90;;;;;;1905429;75;21460;-77
2022/03/27 08:00:51;;;;;;;30.02;15.10;;;7.90;99.90;;;;;;1906042;75;21084;-77
2022/03/27 08:03:20;;;;;;;24.15;13.95;;;8.10;99.90;;;;;;1905427;75;21116;-75
2022/03/27 08:05:50;;;;;;;28.73;14.87;;;8.30;99.90;;;;;;1893185;75;21053;-77
2022/03/27 08:08:17;;;;;;;;;;;8.30;99.90;;;;;;1907984;75;21421;-78
2022/03/27 08:10:45;;;;;;;27.25;13.85;;;8.60;99.90;;;;;;1905531;75;20148;-78
2022/03/27 08:13:12;;;;;;;21.55;13.62;;;8.90;99.90;;;;;;1905454;75;21050;-78
2022/03/27 08:15:39;;;;;;;28.45;14.73;;;9.30;99.90;;;;;;1905647;75;21450;-78
2022/03/27 08:18:08;;;;;;;24.77;14.63;;;9.60;99.90;;;;;;1905475;75;21184;-78
2022/03/27 08:20:35;;;;;;;31.52;15.10;;;9.70;99.90;;;;;;1905510;75;21053;-78
2022/03/27 08:23:03;;;;;;;24.80;14.28;;;10.20;99.90;;;;;;1905478;75;21029;-77
2022/03/27 08:28:16;;;;;;;32.05;14.70;;;10.20;99.90;;;;;;1903548;75;21062;-77
2022/03/27 08:30:44;;;;;;;27.40;14.68;;;10.50;99.90;;;;;;1905550;75;21034;-77
2022/03/27 08:33:11;;;;;;;33.08;15.35;;;10.80;99.90;;;;;;1905661;75;21263;-77
2022/03/27 08:35:46;;;;;;;21.40;14.40;;;11.00;99.90;;;;;;1905430;75;21462;-78
2022/03/27 08:38:11;;;;;;;24.92;14.80;;;11.20;99.90;;;;;;1904067;75;21057;-77
2022/03/27 08:40:40;;;;;;;26.65;13.85;;;11.70;99.90;;;;;;1905157;75;21493;-79
2022/03/27 08:43:13;;;;;;;30.65;15.83;;;12.00;99.90;;;;;;1905739;75;21041;-79
2022/03/27 08:45:41;;;;;;;31.33;14.45;;;12.30;99.90;;;;;;1905659;75;21069;-75
2022/03/27 08:48:09;;;;;;;28.10;14.43;;;12.20;99.90;;;;;;1905448;74;21120;-76
2022/03/27 08:50:58;;;;;;;24.35;14.63;;;12.60;99.90;;;;;;1905955;75;21037;-77
2022/03/27 08:53:30;;;;;;;25.90;15.20;;;12.80;99.90;;;;;;1909161;74;21073;-78
2022/03/27 08:56:03;;;;;;;25.77;14.43;;;13.30;99.90;;;;;;1939020;73;20993;-79
2022/03/27 08:58:37;;;;;;;26.45;14.07;;;13.50;99.90;;;;;;1918873;73;21064;-77
2022/03/27 09:01:05;;;;;;;37.17;15.68;;;13.00;99.90;;;;;;1917934;75;21122;-75
2022/03/27 09:03:32;;;;;;;32.38;15.35;;;13.40;99.90;;;;;;1918691;75;21037;-74
2022/03/27 09:06:01;;;;;;;24.82;14.68;;;14.10;99.90;;;;;;1918970;75;21033;-75
2022/03/27 09:08:29;;;;;;;32.58;15.05;;;14.20;99.90;;;;;;1918763;75;21037;-76
2022/03/27 09:10:57;;;;;;;21.52;13.70;;;14.60;99.90;;;;;;1918652;75;21104;-75
2022/03/27 09:13:24;;;;;;;25.52;14.03;;;14.60;99.90;;;;;;1918805;75;21515;-75
2022/03/27 09:16:02;;;;;;;27.90;15.08;;;15.20;99.90;;;;;;1918626;75;21072;-77
2022/03/27 09:18:52;;;;;;;25.27;14.73;;;15.10;99.90;;;;;;1918951;74;21079;-76
2022/03/27 09:21:21;;;;;;;25.37;13.98;;;15.20;99.90;;;;;;1924733;73;21099;-78
2022/03/27 09:23:58;;;;;;;20.52;13.80;;;15.20;99.90;;;;;;1918772;75;21457;-76
2022/03/27 09:26:25;;;;;;;28.95;13.75;;;15.70;99.90;;;;;;1926224;73;21057;-76
2022/03/27 09:28:54;;;;;;;24.85;13.62;;;15.60;99.90;;;;;;1918944;74;21091;-76
2022/03/27 09:31:27;;;;;;;25.57;14.83;;;15.50;99.90;;;;;;1918828;73;21044;-75
2022/03/27 09:33:56;;;;;;;33.53;14.25;;;15.50;99.90;;;;;;1918924;75;21099;-76
2022/03/27 09:36:32;;;;;;;28.47;13.68;;;15.80;99.90;;;;;;1918553;75;21436;-74
2022/03/27 09:39:16;;;;;;;24.32;13.68;;;16.30;99.90;;;;;;1926741;73;21017;-78
2022/03/27 09:41:42;;;;;;;23.52;14.10;;;16.40;99.90;;;;;;1918421;74;21471;-76
2022/03/27 09:44:17;;;;;;;23.63;13.57;;;16.20;99.90;;;;;;1918899;73;21449;-76
2022/03/27 09:47:07;;;;;;;25.52;12.43;;;16.30;99.90;;;;;;1918829;75;21037;-78
2022/03/27 09:49:46;;;;;;;28.92;13.72;;;16.10;99.90;;;;;;1915464;75;21045;-76
2022/03/27 09:52:19;;;;;;;21.75;13.28;;;16.50;99.90;;;;;;1918898;75;21064;-76
2022/03/27 09:55:02;;;;;;;23.32;13.35;;;17.00;99.90;;;;;;1918806;74;21057;-77
2022/03/27 09:57:34;;;;;;;22.25;12.23;;;17.10;99.90;;;;;;1918946;75;21080;-76
2022/03/27 10:00:18;;;;;;;24.32;12.55;;;17.30;99.90;;;;;;1919024;75;21064;-75
2022/03/27 10:02:50;;;;;;;22.05;12.53;;;17.40;99.90;;;;;;1918743;74;21061;-75
2022/03/27 10:05:21;;;;;;;25.35;12.37;;;17.40;99.90;;;;;;1918749;75;21049;-74
2022/03/27 10:07:52;;;;;;;26.80;11.75;;;18.10;98.70;;;;;;1918678;73;21029;-74
2022/03/27 10:10:24;;;;;;;28.12;11.43;;;18.80;97.30;;;;;;1918202;75;21146;-74
2022/03/27 10:12:52;;;;;;;22.13;12.73;;;18.60;96.10;;;;;;1917823;73;21425;-75
2022/03/27 10:15:22;;;;;;;24.67;11.57;;;18.30;96.60;;;;;;1918775;75;21014;-74
2022/03/27 10:17:57;;;;;;;22.77;11.35;;;18.80;95.50;;;;;;1918869;74;21018;-75
2022/03/27 10:20:30;;;;;;;21.37;11.38;;;19.30;94.30;;;;;;1918706;75;21049;-74
2022/03/27 10:23:03;;;;;;;20.80;11.30;;;19.30;94.30;;;;;;1918939;75;21021;-75
2022/03/27 10:25:36;;;;;;;23.30;11.60;;;19.70;92.20;;;;;;1918947;74;21074;-76
2022/03/27 10:28:04;;;;;;;18.17;10.43;;;19.50;91.90;;;;;;1918915;74;21025;-76
2022/03/27 10:30:31;;;;;;;19.12;10.60;;;19.40;91.90;;;;;;1918889;75;21088;-76
2022/03/27 10:33:00;;;;;;;19.73;10.10;;;19.60;91.00;;;;;;1918953;75;21437;-77
2022/03/27 10:35:45;;;;;;;17.95;10.20;;;19.90;90.40;;;;;;1894167;75;21030;-78
2022/03/27 10:38:24;;;;;;;18.80;10.20;;;20.10;89.10;;;;;;1919047;74;21028;-77
2022/03/27 10:40:57;;;;;;;17.32;9.15;;;20.20;87.60;;;;;;1919112;75;21130;-77
2022/03/27 10:43:45;;;;;;;25.05;11.03;;;20.40;85.60;;;;;;1886535;75;21086;-77
2022/03/27 10:46:15;;;;;;;18.35;9.78;;;20.60;84.40;;;;;;1919004;74;21033;-77
2022/03/27 10:48:44;;;;;;;14.60;9.05;;;21.20;82.30;;;;;;1917516;74;21027;-77
2022/03/27 10:51:34;;;;;;;16.23;9.40;;;21.50;79.50;;;;;;1919684;75;21100;-77
2022/03/27 10:54:06;;;;;;;17.30;9.25;;;21.20;79.10;;;;;;1919517;75;21056;-77
2022/03/27 10:56:45;;;;;;;17.37;9.58;;;21.00;77.20;;;;;;1919108;75;21013;-77
2022/03/27 10:59:18;;;;;;;17.30;9.10;;;21.00;75.20;;;;;;1928970;73;21061;-79
2022/03/27 11:01:50;;;;;;;24.65;10.18;;;20.40;78.60;;;;;;1919919;75;21437;-77
2022/03/27 11:04:41;;;;;;;17.30;9.88;;;20.30;77.00;;;;;;1919384;75;21013;-78
2022/03/27 11:07:18;;;;;;;18.90;9.03;;;20.20;77.50;;;;;;1897359;75;21037;-78
2022/03/27 11:09:45;;;;;;;19.90;9.73;;;20.60;74.90;;;;;;1919209;74;21010;-78
2022/03/27 11:12:29;;;;;;;15.10;9.60;;;20.40;74.20;;;;;;1926329;74;21114;-78
2022/03/27 11:15:05;;;;;;;20.88;9.63;;;20.90;70.60;;;;;;1914603;75;21072;-77
2022/03/27 11:17:34;;;;;;;22.25;8.90;;;20.80;67.70;;;;;;1918393;75;21235;-78
2022/03/27 11:20:03;;;;;;;22.00;8.43;;;21.50;67.10;;;;;;1919418;75;21081;-77
2022/03/27 11:22:55;;;;;;;19.90;7.65;;;21.50;60.30;;;;;;1894298;75;21139;-77
2022/03/27 11:25:47;;;;;;;16.45;8.43;;;21.70;61.30;;;;;;1917663;73;21065;-77
2022/03/27 11:28:15;;;;;;;20.10;8.67;;;21.80;60.30;;;;;;1917117;75;21061;-76
2022/03/27 11:30:54;;;;;;;20.12;8.40;;;22.30;59.00;;;;;;1918787;74;21060;-78
2022/03/27 11:33:30;;;;;;;20.12;8.70;;;22.10;58.20;;;;;;1919701;75;21068;-76
2022/03/27 11:36:14;;;;;;;21.75;8.30;;;22.00;58.20;;;;;;1919290;75;21143;-75
2022/03/27 11:38:54;;;;;;;15.35;8.08;;;22.50;57.30;;;;;;1919370;75;21108;-76
2022/03/27 11:41:26;;;;;;;18.73;8.63;;;22.30;57.00;;;;;;1919191;75;21247;-76
2022/03/27 11:43:55;;;;;;;17.75;8.05;;;22.30;56.90;;;;;;1919299;74;21017;-76
2022/03/27 11:46:25;;;;;;;14.40;7.90;;;22.40;56.30;;;;;;1918811;74;21032;-75
2022/03/27 11:49:00;;;;;;;25.40;8.30;;;22.80;56.30;;;;;;1919071;74;21006;-76
2022/03/27 11:51:28;;;;;;;17.65;8.38;;;22.30;55.70;;;;;;1919065;73;21095;-76
2022/03/27 11:53:57;;;;;;;17.50;7.22;;;22.50;55.70;;;;;;1919055;75;21044;-77
2022/03/27 11:56:25;;;;;;;13.60;7.83;;;23.40;53.90;;;;;;1919091;75;21038;-77
2022/03/27 11:59:06;;;;;;;15.03;8.00;;;23.40;51.70;;;;;;1918715;75;21029;-77
2022/03/27 12:01:38;;;;;;;11.88;6.92;;;23.60;50.80;;;;;;1914657;75;21094;-78
2022/03/27 12:04:10;;;;;;;19.10;7.62;;;23.50;50.80;;;;;;1918641;75;21503;-78
2022/03/27 12:06:37;;;;;;;14.00;7.37;;;23.00;50.90;;;;;;1905344;75;21073;-76
2022/03/27 12:09:10;;;;;;;15.75;8.15;;;22.30;51.90;;;;;;1918802;75;21006;-76
2022/03/27 12:11:35;;;;;;;15.47;6.83;;;22.90;51.90;;;;;;1912329;74;21453;-77
2022/03/27 12:14:11;;;;;;;22.52;7.03;;;23.70;49.20;;;;;;1918576;75;21131;-76
2022/03/27 12:16:46;;;;;;;12.75;7.05;;;23.70;48.80;;;;;;1916468;73;21138;-78
2022/03/27 12:19:13;;;;;;;18.85;6.92;;;24.10;47.20;;;;;;1917239;75;21085;-74
2022/03/27 12:21:46;;;;;;;13.85;6.78;;;23.90;47.10;;;;;;1918559;75;21307;-73
2022/03/27 12:24:16;;;;;;;13.05;6.90;;;23.80;47.80;;;;;;1913037;74;21386;-71
2022/03/27 12:29:49;;;;;;;14.60;6.85;;;24.30;46.80;;;;;;1918643;75;21073;-74
2022/03/27 12:32:14;;;;;;;13.32;5.97;;;24.40;44.70;;;;;;1917531;74;21074;-78
2022/03/27 12:34:44;;;;;;;12.43;6.33;;;24.70;43.20;;;;;;1918555;74;21099;-74
2022/03/27 12:37:19;;;;;;;10.48;6.28;;;24.30;43.10;;;;;;1918854;75;21150;-75
2022/03/27 12:39:52;;;;;;;10.60;5.70;;;24.40;43.50;;;;;;1918735;75;20998;-72
2022/03/27 12:42:39;;;;;;;14.13;6.12;;;24.50;42.90;;;;;;1926428;73;21102;-76
2022/03/27 12:45:22;;;;;;;13.15;6.75;;;23.90;42.50;;;;;;1916239;75;21097;-75
2022/03/27 12:48:00;;;;;;;14.50;6.50;;;24.20;42.80;;;;;;1918328;75;21070;-75
2022/03/27 12:50:35;;;;;;;13.30;6.60;;;24.40;42.40;;;;;;1918618;75;21430;-75
2022/03/27 12:53:05;;;;;;;14.60;6.30;;;24.10;41.10;;;;;;1937212;73;21074;-74
2022/03/27 12:55:47;;;;;;;12.40;5.58;;;24.30;41.30;;;;;;1918657;75;21107;-75
2022/03/27 12:58:18;;;;;;;17.07;6.37;;;24.40;40.20;;;;;;1918627;75;21063;-75
2022/03/27 13:00:47;;;;;;;9.63;5.90;;;23.80;41.10;;;;;;1918616;74;21029;-75
2022/03/27 13:03:16;;;;;;;14.15;5.95;;;24.10;41.10;;;;;;1918446;75;21013;-75
2022/03/27 13:05:46;;;;;;;11.40;6.60;;;24.20;39.90;;;;;;1918819;73;21103;-74